sensor_id;sensor_type;location;lat;lon;timestamp;P1;durP1;ratioP1;P2;durP2;ratioP2
10309;SDS011;5200;43.236;27.986;2023-08-07T00:00:24;4.13;;;3.72;;
10309;SDS011;5200;43.236;27.986;2023-08-07T00:02:51;7.15;;;3.88;;
10309;SDS011;5200;43.236;27.986;2023-08-07T00:05:18;4.00;;;3.65;;
10309;SDS011;5200;43.236;27.986;2023-08-07T00:07:46;4.43;;;3.88;;
10309;SDS011;5200;43.236;27.986;2023-08-07T00:10:13;4.55;;;4.15;;
10309;SDS011;5200;43.236;27.986;2023-08-07T00:12:40;4.63;;;4.22;;
10309;SDS011;5200;43.236;27.986;2023-08-07T00:15:08;4.70;;;4.00;;
10309;SDS011;5200;43.236;27.986;2023-08-07T00:17:36;4.65;;;4.25;;
10309;SDS011;5200;43.236;27.986;2023-08-07T00:20:03;4.85;;;4.38;;
10309;SDS011;5200;43.236;27.986;2023-08-07T00:22:30;5.85;;;5.35;;
10309;SDS011;5200;43.236;27.986;2023-08-07T00:24:59;5.10;;;4.68;;
10309;SDS011;5200;43.236;27.986;2023-08-07T00:27:26;6.53;;;5.60;;
10309;SDS011;5200;43.236;27.986;2023-08-07T00:29:53;8.00;;;4.97;;
10309;SDS011;5200;43.236;27.986;2023-08-07T00:32:20;5.03;;;4.53;;
10309;SDS011;5200;43.236;27.986;2023-08-07T00:34:46;9.05;;;5.18;;
10309;SDS011;5200;43.236;27.986;2023-08-07T00:37:13;6.75;;;4.80;;
10309;SDS011;5200;43.236;27.986;2023-08-07T00:39:40;6.45;;;4.90;;
10309;SDS011;5200;43.236;27.986;2023-08-07T00:42:08;5.00;;;4.60;;
10309;SDS011;5200;43.236;27.986;2023-08-07T00:44:35;6.32;;;5.10;;
10309;SDS011;5200;43.236;27.986;2023-08-07T00:47:02;7.68;;;5.00;;
10309;SDS011;5200;43.236;27.986;2023-08-07T00:49:29;5.60;;;5.10;;
10309;SDS011;5200;43.236;27.986;2023-08-07T00:51:56;5.32;;;4.93;;
10309;SDS011;5200;43.236;27.986;2023-08-07T00:54:23;5.90;;;5.30;;
10309;SDS011;5200;43.236;27.986;2023-08-07T00:56:52;5.85;;;5.35;;
10309;SDS011;5200;43.236;27.986;2023-08-07T00:59:20;5.80;;;5.13;;
10309;SDS011;5200;43.236;27.986;2023-08-07T01:01:47;6.78;;;5.70;;
10309;SDS011;5200;43.236;27.986;2023-08-07T01:04:15;6.80;;;5.57;;
10309;SDS011;5200;43.236;27.986;2023-08-07T01:06:42;5.95;;;5.43;;
10309;SDS011;5200;43.236;27.986;2023-08-07T01:09:09;6.32;;;5.72;;
10309;SDS011;5200;43.236;27.986;2023-08-07T01:11:39;5.65;;;5.15;;
10309;SDS011;5200;43.236;27.986;2023-08-07T01:14:13;7.22;;;5.95;;
10309;SDS011;5200;43.236;27.986;2023-08-07T01:16:52;6.20;;;5.55;;
10309;SDS011;5200;43.236;27.986;2023-08-07T01:19:24;6.10;;;5.60;;
10309;SDS011;5200;43.236;27.986;2023-08-07T01:22:04;6.55;;;5.82;;
10309;SDS011;5200;43.236;27.986;2023-08-07T01:24:32;7.72;;;5.85;;
10309;SDS011;5200;43.236;27.986;2023-08-07T01:27:01;7.45;;;5.90;;
10309;SDS011;5200;43.236;27.986;2023-08-07T01:29:37;7.43;;;6.43;;
10309;SDS011;5200;43.236;27.986;2023-08-07T01:32:10;7.18;;;6.57;;
10309;SDS011;5200;43.236;27.986;2023-08-07T01:34:43;6.97;;;6.38;;
10309;SDS011;5200;43.236;27.986;2023-08-07T01:37:15;7.30;;;6.30;;
10309;SDS011;5200;43.236;27.986;2023-08-07T01:39:43;6.55;;;6.05;;
10309;SDS011;5200;43.236;27.986;2023-08-07T01:42:13;7.03;;;6.00;;
10309;SDS011;5200;43.236;27.986;2023-08-07T01:44:40;7.80;;;6.40;;
10309;SDS011;5200;43.236;27.986;2023-08-07T01:47:07;6.93;;;6.32;;
10309;SDS011;5200;43.236;27.986;2023-08-07T01:49:33;7.10;;;6.50;;
10309;SDS011;5200;43.236;27.986;2023-08-07T01:52:01;6.78;;;6.18;;
10309;SDS011;5200;43.236;27.986;2023-08-07T01:54:30;8.65;;;6.15;;
10309;SDS011;5200;43.236;27.986;2023-08-07T01:56:56;6.63;;;6.03;;
10309;SDS011;5200;43.236;27.986;2023-08-07T01:59:23;6.55;;;5.72;;
10309;SDS011;5200;43.236;27.986;2023-08-07T02:01:50;6.47;;;5.90;;
10309;SDS011;5200;43.236;27.986;2023-08-07T02:04:17;8.13;;;5.72;;
10309;SDS011;5200;43.236;27.986;2023-08-07T02:06:44;5.65;;;5.15;;
10309;SDS011;5200;43.236;27.986;2023-08-07T02:09:11;5.85;;;5.03;;
10309;SDS011;5200;43.236;27.986;2023-08-07T02:11:39;6.80;;;5.35;;
10309;SDS011;5200;43.236;27.986;2023-08-07T02:14:06;6.03;;;5.07;;
10309;SDS011;5200;43.236;27.986;2023-08-07T02:16:33;4.90;;;4.50;;
10309;SDS011;5200;43.236;27.986;2023-08-07T02:19:00;5.78;;;4.30;;
10309;SDS011;5200;43.236;27.986;2023-08-07T02:21:27;5.47;;;4.90;;
10309;SDS011;5200;43.236;27.986;2023-08-07T02:23:54;6.45;;;4.32;;
10309;SDS011;5200;43.236;27.986;2023-08-07T02:26:20;5.40;;;4.90;;
10309;SDS011;5200;43.236;27.986;2023-08-07T02:28:49;13.63;;;4.82;;
10309;SDS011;5200;43.236;27.986;2023-08-07T02:31:16;5.32;;;4.78;;
10309;SDS011;5200;43.236;27.986;2023-08-07T02:33:42;7.35;;;4.72;;
10309;SDS011;5200;43.236;27.986;2023-08-07T02:36:09;5.53;;;5.00;;
10309;SDS011;5200;43.236;27.986;2023-08-07T02:38:36;6.70;;;4.53;;
10309;SDS011;5200;43.236;27.986;2023-08-07T02:41:03;10.40;;;4.90;;
10309;SDS011;5200;43.236;27.986;2023-08-07T02:43:30;5.47;;;4.97;;
10309;SDS011;5200;43.236;27.986;2023-08-07T02:45:59;8.60;;;4.35;;
10309;SDS011;5200;43.236;27.986;2023-08-07T02:48:26;5.25;;;4.85;;
10309;SDS011;5200;43.236;27.986;2023-08-07T02:50:53;5.68;;;5.05;;
10309;SDS011;5200;43.236;27.986;2023-08-07T02:53:20;4.93;;;4.53;;
10309;SDS011;5200;43.236;27.986;2023-08-07T02:55:46;7.80;;;4.97;;
10309;SDS011;5200;43.236;27.986;2023-08-07T02:58:13;5.60;;;5.10;;
10309;SDS011;5200;43.236;27.986;2023-08-07T03:00:40;5.10;;;4.57;;
10309;SDS011;5200;43.236;27.986;2023-08-07T03:03:10;6.35;;;5.20;;
10309;SDS011;5200;43.236;27.986;2023-08-07T03:05:36;5.28;;;4.78;;
10309;SDS011;5200;43.236;27.986;2023-08-07T03:08:03;5.78;;;5.18;;
10309;SDS011;5200;43.236;27.986;2023-08-07T03:10:30;5.47;;;5.05;;
10309;SDS011;5200;43.236;27.986;2023-08-07T03:12:57;8.00;;;5.15;;
10309;SDS011;5200;43.236;27.986;2023-08-07T03:15:24;5.40;;;4.90;;
10309;SDS011;5200;43.236;27.986;2023-08-07T03:17:51;5.97;;;4.65;;
10309;SDS011;5200;43.236;27.986;2023-08-07T03:20:19;5.95;;;5.35;;
10309;SDS011;5200;43.236;27.986;2023-08-07T03:22:46;6.28;;;4.03;;
10309;SDS011;5200;43.236;27.986;2023-08-07T03:25:13;4.97;;;4.47;;
10309;SDS011;5200;43.236;27.986;2023-08-07T03:27:39;5.18;;;4.53;;
10309;SDS011;5200;43.236;27.986;2023-08-07T03:30:07;4.53;;;3.90;;
10309;SDS011;5200;43.236;27.986;2023-08-07T03:32:34;6.22;;;3.92;;
10309;SDS011;5200;43.236;27.986;2023-08-07T03:35:01;4.97;;;3.92;;
10309;SDS011;5200;43.236;27.986;2023-08-07T03:37:29;6.00;;;3.40;;
10309;SDS011;5200;43.236;27.986;2023-08-07T03:39:56;3.75;;;3.40;;
10309;SDS011;5200;43.236;27.986;2023-08-07T03:42:23;6.45;;;3.50;;
10309;SDS011;5200;43.236;27.986;2023-08-07T03:44:50;5.78;;;3.60;;
10309;SDS011;5200;43.236;27.986;2023-08-07T03:47:17;3.50;;;3.20;;
10309;SDS011;5200;43.236;27.986;2023-08-07T03:49:43;3.20;;;2.97;;
10309;SDS011;5200;43.236;27.986;2023-08-07T03:52:10;3.30;;;3.00;;
10309;SDS011;5200;43.236;27.986;2023-08-07T03:54:38;3.28;;;2.97;;
10309;SDS011;5200;43.236;27.986;2023-08-07T03:57:05;2.80;;;2.47;;
10309;SDS011;5200;43.236;27.986;2023-08-07T03:59:33;3.15;;;2.95;;
10309;SDS011;5200;43.236;27.986;2023-08-07T04:02:00;2.80;;;2.60;;
10309;SDS011;5200;43.236;27.986;2023-08-07T04:04:27;3.05;;;2.63;;
10309;SDS011;5200;43.236;27.986;2023-08-07T04:06:54;3.90;;;2.50;;
10309;SDS011;5200;43.236;27.986;2023-08-07T04:09:20;7.07;;;2.42;;
10309;SDS011;5200;43.236;27.986;2023-08-07T04:11:49;3.67;;;2.22;;
10309;SDS011;5200;43.236;27.986;2023-08-07T04:14:15;5.00;;;2.40;;
10309;SDS011;5200;43.236;27.986;2023-08-07T04:16:42;2.78;;;2.42;;
10309;SDS011;5200;43.236;27.986;2023-08-07T04:19:09;4.38;;;2.58;;
10309;SDS011;5200;43.236;27.986;2023-08-07T04:21:36;2.63;;;2.25;;
10309;SDS011;5200;43.236;27.986;2023-08-07T04:24:03;2.40;;;2.20;;
10309;SDS011;5200;43.236;27.986;2023-08-07T04:26:35;6.00;;;2.38;;
10309;SDS011;5200;43.236;27.986;2023-08-07T04:29:03;3.28;;;2.13;;
10309;SDS011;5200;43.236;27.986;2023-08-07T04:31:32;4.28;;;2.70;;
10309;SDS011;5200;43.236;27.986;2023-08-07T04:33:59;2.17;;;2.05;;
10309;SDS011;5200;43.236;27.986;2023-08-07T04:36:26;2.92;;;2.38;;
10309;SDS011;5200;43.236;27.986;2023-08-07T04:38:53;4.18;;;2.10;;
10309;SDS011;5200;43.236;27.986;2023-08-07T04:41:20;3.10;;;2.30;;
10309;SDS011;5200;43.236;27.986;2023-08-07T04:43:48;4.28;;;2.10;;
10309;SDS011;5200;43.236;27.986;2023-08-07T04:46:16;10.15;;;2.35;;
10309;SDS011;5200;43.236;27.986;2023-08-07T04:48:43;5.10;;;2.53;;
10309;SDS011;5200;43.236;27.986;2023-08-07T04:51:10;2.47;;;2.33;;
10309;SDS011;5200;43.236;27.986;2023-08-07T04:53:36;3.80;;;2.13;;
10309;SDS011;5200;43.236;27.986;2023-08-07T04:56:03;3.80;;;2.00;;
10309;SDS011;5200;43.236;27.986;2023-08-07T04:58:30;10.63;;;2.55;;
10309;SDS011;5200;43.236;27.986;2023-08-07T05:00:58;2.00;;;1.80;;
10309;SDS011;5200;43.236;27.986;2023-08-07T05:03:27;3.78;;;2.00;;
10309;SDS011;5200;43.236;27.986;2023-08-07T05:05:58;5.65;;;2.25;;
10309;SDS011;5200;43.236;27.986;2023-08-07T05:08:26;3.45;;;1.60;;
10309;SDS011;5200;43.236;27.986;2023-08-07T05:10:53;2.78;;;1.25;;
10309;SDS011;5200;43.236;27.986;2023-08-07T05:13:19;2.78;;;1.67;;
10309;SDS011;5200;43.236;27.986;2023-08-07T05:15:46;1.98;;;1.50;;
10309;SDS011;5200;43.236;27.986;2023-08-07T05:18:13;1.65;;;1.55;;
10309;SDS011;5200;43.236;27.986;2023-08-07T05:20:42;5.43;;;1.60;;
10309;SDS011;5200;43.236;27.986;2023-08-07T05:23:09;1.20;;;1.20;;
10309;SDS011;5200;43.236;27.986;2023-08-07T05:25:36;1.88;;;1.63;;
10309;SDS011;5200;43.236;27.986;2023-08-07T05:28:03;5.72;;;1.55;;
10309;SDS011;5200;43.236;27.986;2023-08-07T05:30:31;2.92;;;1.50;;
10309;SDS011;5200;43.236;27.986;2023-08-07T05:32:58;4.20;;;1.83;;
10309;SDS011;5200;43.236;27.986;2023-08-07T05:35:25;1.60;;;1.50;;
10309;SDS011;5200;43.236;27.986;2023-08-07T05:37:53;6.50;;;1.85;;
10309;SDS011;5200;43.236;27.986;2023-08-07T05:40:20;1.95;;;1.83;;
10309;SDS011;5200;43.236;27.986;2023-08-07T05:42:47;5.40;;;1.67;;
10309;SDS011;5200;43.236;27.986;2023-08-07T05:45:14;4.03;;;1.50;;
10309;SDS011;5200;43.236;27.986;2023-08-07T05:47:41;1.25;;;1.20;;
10309;SDS011;5200;43.236;27.986;2023-08-07T05:50:08;9.57;;;1.77;;
10309;SDS011;5200;43.236;27.986;2023-08-07T05:52:35;1.65;;;1.55;;
10309;SDS011;5200;43.236;27.986;2023-08-07T05:55:04;1.70;;;1.60;;
10309;SDS011;5200;43.236;27.986;2023-08-07T05:57:33;5.20;;;1.70;;
10309;SDS011;5200;43.236;27.986;2023-08-07T06:00:00;4.22;;;1.40;;
10309;SDS011;5200;43.236;27.986;2023-08-07T06:02:27;7.35;;;2.15;;
10309;SDS011;5200;43.236;27.986;2023-08-07T06:04:54;2.60;;;1.45;;
10309;SDS011;5200;43.236;27.986;2023-08-07T06:07:21;1.55;;;1.45;;
10309;SDS011;5200;43.236;27.986;2023-08-07T06:09:48;3.95;;;1.30;;
10309;SDS011;5200;43.236;27.986;2023-08-07T06:12:16;6.68;;;1.70;;
10309;SDS011;5200;43.236;27.986;2023-08-07T06:14:43;4.40;;;1.40;;
10309;SDS011;5200;43.236;27.986;2023-08-07T06:17:10;2.15;;;1.23;;
10309;SDS011;5200;43.236;27.986;2023-08-07T06:19:37;2.45;;;1.60;;
10309;SDS011;5200;43.236;27.986;2023-08-07T06:22:04;5.15;;;1.83;;
10309;SDS011;5200;43.236;27.986;2023-08-07T06:24:31;1.95;;;1.50;;
10309;SDS011;5200;43.236;27.986;2023-08-07T06:26:58;4.22;;;1.50;;
10309;SDS011;5200;43.236;27.986;2023-08-07T06:29:27;1.55;;;1.40;;
10309;SDS011;5200;43.236;27.986;2023-08-07T06:31:53;1.10;;;1.10;;
10309;SDS011;5200;43.236;27.986;2023-08-07T06:34:20;1.35;;;1.25;;
10309;SDS011;5200;43.236;27.986;2023-08-07T06:36:47;8.60;;;1.77;;
10309;SDS011;5200;43.236;27.986;2023-08-07T06:39:14;9.05;;;1.35;;
10309;SDS011;5200;43.236;27.986;2023-08-07T06:41:41;4.85;;;1.40;;
10309;SDS011;5200;43.236;27.986;2023-08-07T06:44:08;3.30;;;1.38;;
10309;SDS011;5200;43.236;27.986;2023-08-07T06:46:36;6.43;;;1.30;;
10309;SDS011;5200;43.236;27.986;2023-08-07T06:49:03;5.35;;;1.50;;
10309;SDS011;5200;43.236;27.986;2023-08-07T06:51:30;3.90;;;1.20;;
10309;SDS011;5200;43.236;27.986;2023-08-07T06:53:57;1.35;;;1.25;;
10309;SDS011;5200;43.236;27.986;2023-08-07T06:56:23;14.32;;;2.00;;
10309;SDS011;5200;43.236;27.986;2023-08-07T06:58:50;9.65;;;1.83;;
10309;SDS011;5200;43.236;27.986;2023-08-07T07:01:17;3.95;;;1.10;;
10309;SDS011;5200;43.236;27.986;2023-08-07T07:03:45;5.28;;;1.20;;
10309;SDS011;5200;43.236;27.986;2023-08-07T07:06:17;2.78;;;1.00;;
10309;SDS011;5200;43.236;27.986;2023-08-07T07:08:44;7.03;;;1.20;;
10309;SDS011;5200;43.236;27.986;2023-08-07T07:11:11;3.20;;;1.20;;
10309;SDS011;5200;43.236;27.986;2023-08-07T07:13:38;12.07;;;1.55;;
10309;SDS011;5200;43.236;27.986;2023-08-07T07:16:05;8.57;;;1.35;;
10309;SDS011;5200;43.236;27.986;2023-08-07T07:18:32;2.05;;;1.05;;
10309;SDS011;5200;43.236;27.986;2023-08-07T07:21:01;7.22;;;1.42;;
10309;SDS011;5200;43.236;27.986;2023-08-07T07:23:28;4.07;;;1.25;;
10309;SDS011;5200;43.236;27.986;2023-08-07T07:25:55;2.08;;;1.00;;
10309;SDS011;5200;43.236;27.986;2023-08-07T07:28:22;5.50;;;1.27;;
10309;SDS011;5200;43.236;27.986;2023-08-07T07:30:50;6.70;;;1.90;;
10309;SDS011;5200;43.236;27.986;2023-08-07T07:33:17;2.45;;;1.05;;
10309;SDS011;5200;43.236;27.986;2023-08-07T07:35:44;3.35;;;1.23;;
10309;SDS011;5200;43.236;27.986;2023-08-07T07:38:12;1.98;;;1.00;;
10309;SDS011;5200;43.236;27.986;2023-08-07T07:40:40;8.10;;;1.58;;
10309;SDS011;5200;43.236;27.986;2023-08-07T07:43:07;4.90;;;1.30;;
10309;SDS011;5200;43.236;27.986;2023-08-07T07:45:35;1.65;;;1.20;;
10309;SDS011;5200;43.236;27.986;2023-08-07T07:48:02;4.50;;;1.40;;
10309;SDS011;5200;43.236;27.986;2023-08-07T07:50:29;3.88;;;1.17;;
10309;SDS011;5200;43.236;27.986;2023-08-07T07:52:56;10.50;;;1.73;;
10309;SDS011;5200;43.236;27.986;2023-08-07T07:55:24;3.63;;;1.50;;
10309;SDS011;5200;43.236;27.986;2023-08-07T07:57:53;1.60;;;1.05;;
10309;SDS011;5200;43.236;27.986;2023-08-07T08:00:20;4.82;;;1.08;;
10309;SDS011;5200;43.236;27.986;2023-08-07T08:02:51;8.10;;;1.40;;
10309;SDS011;5200;43.236;27.986;2023-08-07T08:05:18;1.38;;;1.00;;
10309;SDS011;5200;43.236;27.986;2023-08-07T08:07:45;4.45;;;1.10;;
10309;SDS011;5200;43.236;27.986;2023-08-07T08:10:12;2.58;;;1.02;;
10309;SDS011;5200;43.236;27.986;2023-08-07T08:12:41;1.88;;;1.27;;
10309;SDS011;5200;43.236;27.986;2023-08-07T08:15:08;10.40;;;1.38;;
10309;SDS011;5200;43.236;27.986;2023-08-07T08:17:35;2.60;;;1.52;;
10309;SDS011;5200;43.236;27.986;2023-08-07T08:20:02;8.68;;;1.52;;
10309;SDS011;5200;43.236;27.986;2023-08-07T08:22:30;3.65;;;1.55;;
10309;SDS011;5200;43.236;27.986;2023-08-07T08:24:56;3.38;;;1.30;;
10309;SDS011;5200;43.236;27.986;2023-08-07T08:27:23;5.53;;;1.40;;
10309;SDS011;5200;43.236;27.986;2023-08-07T08:29:52;1.42;;;1.33;;
10309;SDS011;5200;43.236;27.986;2023-08-07T08:32:19;8.80;;;1.40;;
10309;SDS011;5200;43.236;27.986;2023-08-07T08:34:48;5.28;;;1.35;;
10309;SDS011;5200;43.236;27.986;2023-08-07T08:37:15;5.10;;;1.45;;
10309;SDS011;5200;43.236;27.986;2023-08-07T08:39:44;4.15;;;1.20;;
10309;SDS011;5200;43.236;27.986;2023-08-07T08:42:11;9.13;;;1.70;;
10309;SDS011;5200;43.236;27.986;2023-08-07T08:44:39;3.08;;;1.48;;
10309;SDS011;5200;43.236;27.986;2023-08-07T08:47:08;4.30;;;1.20;;
10309;SDS011;5200;43.236;27.986;2023-08-07T08:49:38;2.83;;;1.30;;
10309;SDS011;5200;43.236;27.986;2023-08-07T08:52:12;1.48;;;1.20;;
10309;SDS011;5200;43.236;27.986;2023-08-07T08:54:39;3.95;;;1.27;;
10309;SDS011;5200;43.236;27.986;2023-08-07T08:57:06;4.85;;;1.25;;
10309;SDS011;5200;43.236;27.986;2023-08-07T08:59:34;4.85;;;1.27;;
10309;SDS011;5200;43.236;27.986;2023-08-07T09:02:01;1.33;;;1.23;;
10309;SDS011;5200;43.236;27.986;2023-08-07T09:04:31;6.95;;;1.60;;
10309;SDS011;5200;43.236;27.986;2023-08-07T09:06:58;6.30;;;1.38;;
10309;SDS011;5200;43.236;27.986;2023-08-07T09:09:25;10.40;;;1.70;;
10309;SDS011;5200;43.236;27.986;2023-08-07T09:11:53;1.50;;;1.40;;
10309;SDS011;5200;43.236;27.986;2023-08-07T09:14:24;1.48;;;1.10;;
10309;SDS011;5200;43.236;27.986;2023-08-07T09:16:57;1.88;;;1.40;;
10309;SDS011;5200;43.236;27.986;2023-08-07T09:19:27;1.17;;;1.05;;
10309;SDS011;5200;43.236;27.986;2023-08-07T09:21:55;2.78;;;1.25;;
10309;SDS011;5200;43.236;27.986;2023-08-07T09:24:22;2.08;;;1.20;;
10309;SDS011;5200;43.236;27.986;2023-08-07T09:26:50;1.80;;;1.23;;
10309;SDS011;5200;43.236;27.986;2023-08-07T09:29:18;4.63;;;1.10;;
10309;SDS011;5200;43.236;27.986;2023-08-07T09:31:44;4.20;;;1.00;;
10309;SDS011;5200;43.236;27.986;2023-08-07T09:34:11;1.92;;;1.30;;
10309;SDS011;5200;43.236;27.986;2023-08-07T09:36:41;2.67;;;1.35;;
10309;SDS011;5200;43.236;27.986;2023-08-07T09:39:10;3.03;;;1.73;;
10309;SDS011;5200;43.236;27.986;2023-08-07T09:41:37;11.50;;;1.73;;
10309;SDS011;5200;43.236;27.986;2023-08-07T09:44:05;5.53;;;1.60;;
10309;SDS011;5200;43.236;27.986;2023-08-07T09:46:40;8.80;;;2.00;;
10309;SDS011;5200;43.236;27.986;2023-08-07T09:49:07;11.35;;;1.83;;
10309;SDS011;5200;43.236;27.986;2023-08-07T09:51:40;5.15;;;1.30;;
10309;SDS011;5200;43.236;27.986;2023-08-07T09:54:10;1.95;;;1.20;;
10309;SDS011;5200;43.236;27.986;2023-08-07T09:56:37;3.60;;;1.52;;
10309;SDS011;5200;43.236;27.986;2023-08-07T09:59:04;4.80;;;1.40;;
10309;SDS011;5200;43.236;27.986;2023-08-07T10:01:31;6.63;;;1.65;;
10309;SDS011;5200;43.236;27.986;2023-08-07T10:03:58;2.53;;;1.10;;
10309;SDS011;5200;43.236;27.986;2023-08-07T10:06:26;4.82;;;1.40;;
10309;SDS011;5200;43.236;27.986;2023-08-07T10:08:53;3.10;;;1.60;;
10309;SDS011;5200;43.236;27.986;2023-08-07T10:11:22;1.08;;;1.08;;
10309;SDS011;5200;43.236;27.986;2023-08-07T10:13:50;6.40;;;1.17;;
10309;SDS011;5200;43.236;27.986;2023-08-07T10:16:17;1.25;;;1.15;;
10309;SDS011;5200;43.236;27.986;2023-08-07T10:18:44;1.15;;;1.05;;
10309;SDS011;5200;43.236;27.986;2023-08-07T10:21:11;1.10;;;1.10;;
10309;SDS011;5200;43.236;27.986;2023-08-07T10:23:38;2.10;;;1.20;;
10309;SDS011;5200;43.236;27.986;2023-08-07T10:26:06;2.55;;;0.98;;
10309;SDS011;5200;43.236;27.986;2023-08-07T10:28:37;0.90;;;0.90;;
10309;SDS011;5200;43.236;27.986;2023-08-07T10:31:06;3.60;;;1.15;;
10309;SDS011;5200;43.236;27.986;2023-08-07T10:33:35;0.82;;;0.82;;
10309;SDS011;5200;43.236;27.986;2023-08-07T10:36:07;5.63;;;1.63;;
10309;SDS011;5200;43.236;27.986;2023-08-07T10:38:36;2.90;;;1.13;;
10309;SDS011;5200;43.236;27.986;2023-08-07T10:41:06;1.20;;;0.98;;
10309;SDS011;5200;43.236;27.986;2023-08-07T10:43:37;1.00;;;1.00;;
10309;SDS011;5200;43.236;27.986;2023-08-07T10:46:05;1.10;;;1.00;;
10309;SDS011;5200;43.236;27.986;2023-08-07T10:48:38;0.98;;;0.98;;
10309;SDS011;5200;43.236;27.986;2023-08-07T10:51:06;2.25;;;1.00;;
10309;SDS011;5200;43.236;27.986;2023-08-07T10:53:34;1.85;;;1.23;;
10309;SDS011;5200;43.236;27.986;2023-08-07T10:56:02;0.98;;;0.98;;
10309;SDS011;5200;43.236;27.986;2023-08-07T10:58:32;0.90;;;0.90;;
10309;SDS011;5200;43.236;27.986;2023-08-07T11:01:21;1.30;;;0.98;;
10309;SDS011;5200;43.236;27.986;2023-08-07T11:03:52;2.35;;;1.10;;
10309;SDS011;5200;43.236;27.986;2023-08-07T11:06:23;1.95;;;0.73;;
10309;SDS011;5200;43.236;27.986;2023-08-07T11:08:52;1.52;;;1.10;;
10309;SDS011;5200;43.236;27.986;2023-08-07T11:11:20;2.42;;;1.10;;
10309;SDS011;5200;43.236;27.986;2023-08-07T11:13:47;2.67;;;1.15;;
10309;SDS011;5200;43.236;27.986;2023-08-07T11:16:14;2.47;;;0.90;;
10309;SDS011;5200;43.236;27.986;2023-08-07T11:18:43;0.93;;;0.93;;
10309;SDS011;5200;43.236;27.986;2023-08-07T11:21:11;1.00;;;1.00;;
10309;SDS011;5200;43.236;27.986;2023-08-07T11:23:38;2.92;;;0.93;;
10309;SDS011;5200;43.236;27.986;2023-08-07T11:26:06;4.45;;;1.30;;
10309;SDS011;5200;43.236;27.986;2023-08-07T11:28:33;1.50;;;1.00;;
10309;SDS011;5200;43.236;27.986;2023-08-07T11:31:00;2.55;;;0.98;;
10309;SDS011;5200;43.236;27.986;2023-08-07T11:33:28;1.45;;;1.00;;
10309;SDS011;5200;43.236;27.986;2023-08-07T11:35:57;2.00;;;0.98;;
10309;SDS011;5200;43.236;27.986;2023-08-07T11:38:30;3.92;;;1.20;;
10309;SDS011;5200;43.236;27.986;2023-08-07T11:40:59;1.85;;;1.08;;
10309;SDS011;5200;43.236;27.986;2023-08-07T11:43:27;0.98;;;0.98;;
10309;SDS011;5200;43.236;27.986;2023-08-07T11:45:56;1.30;;;1.20;;
10309;SDS011;5200;43.236;27.986;2023-08-07T11:48:24;2.28;;;1.30;;
10309;SDS011;5200;43.236;27.986;2023-08-07T11:50:52;3.30;;;1.20;;
10309;SDS011;5200;43.236;27.986;2023-08-07T11:53:20;1.55;;;1.23;;
10309;SDS011;5200;43.236;27.986;2023-08-07T11:55:51;2.60;;;1.13;;
10309;SDS011;5200;43.236;27.986;2023-08-07T11:58:19;1.50;;;0.80;;
10309;SDS011;5200;43.236;27.986;2023-08-07T12:00:46;4.03;;;1.00;;
10309;SDS011;5200;43.236;27.986;2023-08-07T12:03:24;1.10;;;1.00;;
10309;SDS011;5200;43.236;27.986;2023-08-07T12:05:55;0.93;;;0.90;;
10309;SDS011;5200;43.236;27.986;2023-08-07T12:08:25;2.35;;;1.40;;
10309;SDS011;5200;43.236;27.986;2023-08-07T12:10:58;3.63;;;1.52;;
10309;SDS011;5200;43.236;27.986;2023-08-07T12:13:27;1.05;;;1.05;;
10309;SDS011;5200;43.236;27.986;2023-08-07T12:15:54;1.90;;;1.20;;
10309;SDS011;5200;43.236;27.986;2023-08-07T12:18:22;1.10;;;1.10;;
10309;SDS011;5200;43.236;27.986;2023-08-07T12:20:50;1.10;;;1.10;;
10309;SDS011;5200;43.236;27.986;2023-08-07T12:23:17;3.25;;;1.17;;
10309;SDS011;5200;43.236;27.986;2023-08-07T12:25:48;2.08;;;1.02;;
10309;SDS011;5200;43.236;27.986;2023-08-07T12:28:15;2.75;;;1.10;;
10309;SDS011;5200;43.236;27.986;2023-08-07T12:30:44;0.90;;;0.90;;
10309;SDS011;5200;43.236;27.986;2023-08-07T12:33:11;1.30;;;1.20;;
10309;SDS011;5200;43.236;27.986;2023-08-07T12:35:38;1.65;;;1.00;;
10309;SDS011;5200;43.236;27.986;2023-08-07T12:38:06;1.13;;;0.98;;
10309;SDS011;5200;43.236;27.986;2023-08-07T12:40:33;2.67;;;1.10;;
10309;SDS011;5200;43.236;27.986;2023-08-07T12:43:02;2.30;;;0.73;;
10309;SDS011;5200;43.236;27.986;2023-08-07T12:45:30;3.90;;;1.17;;
10309;SDS011;5200;43.236;27.986;2023-08-07T12:47:57;1.52;;;1.30;;
10309;SDS011;5200;43.236;27.986;2023-08-07T12:50:27;3.17;;;1.30;;
10309;SDS011;5200;43.236;27.986;2023-08-07T12:52:58;1.58;;;1.33;;
10309;SDS011;5200;43.236;27.986;2023-08-07T12:55:25;1.55;;;1.10;;
10309;SDS011;5200;43.236;27.986;2023-08-07T12:57:53;1.95;;;1.42;;
10309;SDS011;5200;43.236;27.986;2023-08-07T13:00:22;0.82;;;0.82;;
10309;SDS011;5200;43.236;27.986;2023-08-07T13:02:52;1.83;;;1.13;;
10309;SDS011;5200;43.236;27.986;2023-08-07T13:05:20;1.10;;;0.90;;
10309;SDS011;5200;43.236;27.986;2023-08-07T13:07:48;11.90;;;1.15;;
10309;SDS011;5200;43.236;27.986;2023-08-07T13:10:19;2.28;;;1.00;;
10309;SDS011;5200;43.236;27.986;2023-08-07T13:12:47;4.30;;;1.50;;
10309;SDS011;5200;43.236;27.986;2023-08-07T13:15:15;0.90;;;0.90;;
10309;SDS011;5200;43.236;27.986;2023-08-07T13:17:44;1.40;;;1.30;;
10309;SDS011;5200;43.236;27.986;2023-08-07T13:20:12;1.05;;;0.93;;
10309;SDS011;5200;43.236;27.986;2023-08-07T13:22:40;2.72;;;1.02;;
10309;SDS011;5200;43.236;27.986;2023-08-07T13:25:08;1.13;;;1.00;;
10309;SDS011;5200;43.236;27.986;2023-08-07T13:27:36;2.80;;;1.10;;
10309;SDS011;5200;43.236;27.986;2023-08-07T13:30:04;4.88;;;1.00;;
10309;SDS011;5200;43.236;27.986;2023-08-07T13:32:32;2.75;;;1.40;;
10309;SDS011;5200;43.236;27.986;2023-08-07T13:35:00;4.30;;;1.30;;
10309;SDS011;5200;43.236;27.986;2023-08-07T13:37:31;2.90;;;1.20;;
10309;SDS011;5200;43.236;27.986;2023-08-07T13:39:58;2.28;;;1.23;;
10309;SDS011;5200;43.236;27.986;2023-08-07T13:42:25;0.98;;;0.98;;
10309;SDS011;5200;43.236;27.986;2023-08-07T13:44:53;1.27;;;0.90;;
10309;SDS011;5200;43.236;27.986;2023-08-07T13:47:21;1.23;;;1.13;;
10309;SDS011;5200;43.236;27.986;2023-08-07T13:49:50;5.45;;;1.17;;
10309;SDS011;5200;43.236;27.986;2023-08-07T13:52:19;1.73;;;1.42;;
10309;SDS011;5200;43.236;27.986;2023-08-07T13:54:46;1.35;;;0.98;;
10309;SDS011;5200;43.236;27.986;2023-08-07T13:57:13;1.20;;;1.10;;
10309;SDS011;5200;43.236;27.986;2023-08-07T13:59:40;1.60;;;1.05;;
10309;SDS011;5200;43.236;27.986;2023-08-07T14:02:07;1.80;;;1.42;;
10309;SDS011;5200;43.236;27.986;2023-08-07T14:04:34;5.05;;;3.22;;
10309;SDS011;5200;43.236;27.986;2023-08-07T14:07:01;2.63;;;2.42;;
10309;SDS011;5200;43.236;27.986;2023-08-07T14:09:30;4.10;;;2.10;;
10309;SDS011;5200;43.236;27.986;2023-08-07T14:11:57;4.00;;;2.67;;
10309;SDS011;5200;43.236;27.986;2023-08-07T14:14:24;4.80;;;2.22;;
10309;SDS011;5200;43.236;27.986;2023-08-07T14:16:51;2.53;;;1.77;;
10309;SDS011;5200;43.236;27.986;2023-08-07T14:19:19;3.72;;;2.10;;
10309;SDS011;5200;43.236;27.986;2023-08-07T14:21:46;6.57;;;1.90;;
10309;SDS011;5200;43.236;27.986;2023-08-07T14:24:13;3.28;;;1.58;;
10309;SDS011;5200;43.236;27.986;2023-08-07T14:26:42;4.60;;;1.90;;
10309;SDS011;5200;43.236;27.986;2023-08-07T14:29:10;4.25;;;1.88;;
10309;SDS011;5200;43.236;27.986;2023-08-07T14:31:36;1.63;;;1.42;;
10309;SDS011;5200;43.236;27.986;2023-08-07T14:34:04;4.18;;;1.80;;
10309;SDS011;5200;43.236;27.986;2023-08-07T14:36:32;3.42;;;1.25;;
10309;SDS011;5200;43.236;27.986;2023-08-07T14:38:59;1.58;;;1.48;;
10309;SDS011;5200;43.236;27.986;2023-08-07T14:41:27;1.45;;;1.35;;
10309;SDS011;5200;43.236;27.986;2023-08-07T14:43:55;2.28;;;1.58;;
10309;SDS011;5200;43.236;27.986;2023-08-07T14:46:22;2.58;;;1.33;;
10309;SDS011;5200;43.236;27.986;2023-08-07T14:48:49;2.20;;;1.40;;
10309;SDS011;5200;43.236;27.986;2023-08-07T14:51:16;4.63;;;1.33;;